sensor_id;sensor_type;location;lat;lon;timestamp;pressure;altitude;pressure_sealevel;temperature;humidity
59009;BME280;44794;42.652;23.318;2024-02-21T00:01:35;95179.97;;;7.85;98.10
59009;BME280;44794;42.652;23.318;2024-02-21T00:04:00;95180.38;;;7.62;98.19
59009;BME280;44794;42.652;23.318;2024-02-21T00:06:25;95177.28;;;7.55;98.70
59009;BME280;44794;42.652;23.318;2024-02-21T00:08:51;95178.34;;;7.51;99.18
59009;BME280;44794;42.652;23.318;2024-02-21T00:11:16;95177.88;;;7.76;98.62
59009;BME280;44794;42.652;23.318;2024-02-21T00:13:41;95175.13;;;7.79;97.70
59009;BME280;44794;42.652;23.318;2024-02-21T00:16:07;95174.38;;;7.77;98.15
59009;BME280;44794;42.652;23.318;2024-02-21T00:18:32;95179.28;;;8.12;96.17
59009;BME280;44794;42.652;23.318;2024-02-21T00:20:57;95181.06;;;8.12;95.63
59009;BME280;44794;42.652;23.318;2024-02-21T00:23:22;95180.50;;;8.22;94.91
59009;BME280;44794;42.652;23.318;2024-02-21T00:25:48;95176.69;;;8.12;94.11
59009;BME280;44794;42.652;23.318;2024-02-21T00:28:13;95177.47;;;7.83;95.04
59009;BME280;44794;42.652;23.318;2024-02-21T00:30:38;95175.47;;;7.88;95.92
59009;BME280;44794;42.652;23.318;2024-02-21T00:33:03;95166.38;;;7.97;96.39
59009;BME280;44794;42.652;23.318;2024-02-21T00:35:29;95169.88;;;7.96;96.08
59009;BME280;44794;42.652;23.318;2024-02-21T00:37:54;95171.63;;;7.95;96.52
59009;BME280;44794;42.652;23.318;2024-02-21T00:40:19;95170.22;;;7.74;97.12
59009;BME280;44794;42.652;23.318;2024-02-21T00:42:46;95159.00;;;7.58;98.60
59009;BME280;44794;42.652;23.318;2024-02-21T00:45:12;95158.09;;;7.59;99.37
59009;BME280;44794;42.652;23.318;2024-02-21T00:47:37;95162.34;;;7.45;99.82
59009;BME280;44794;42.652;23.318;2024-02-21T00:50:02;95153.97;;;7.25;100.00
59009;BME280;44794;42.652;23.318;2024-02-21T00:52:27;95146.34;;;7.22;100.00
59009;BME280;44794;42.652;23.318;2024-02-21T00:54:53;95147.25;;;7.05;100.00
59009;BME280;44794;42.652;23.318;2024-02-21T00:57:18;95145.09;;;7.13;100.00
59009;BME280;44794;42.652;23.318;2024-02-21T00:59:43;95145.13;;;7.29;100.00
59009;BME280;44794;42.652;23.318;2024-02-21T01:02:08;95144.66;;;7.38;100.00
59009;BME280;44794;42.652;23.318;2024-02-21T01:04:34;95137.53;;;7.58;100.00
59009;BME280;44794;42.652;23.318;2024-02-21T01:06:59;95138.00;;;7.49;100.00
59009;BME280;44794;42.652;23.318;2024-02-21T01:09:25;95134.50;;;7.35;100.00
59009;BME280;44794;42.652;23.318;2024-02-21T01:11:50;95124.97;;;7.35;100.00
59009;BME280;44794;42.652;23.318;2024-02-21T01:14:15;95126.44;;;7.08;100.00
59009;BME280;44794;42.652;23.318;2024-02-21T01:16:40;95134.13;;;7.25;100.00
59009;BME280;44794;42.652;23.318;2024-02-21T01:19:06;95122.03;;;7.10;100.00
59009;BME280;44794;42.652;23.318;2024-02-21T01:21:31;95115.84;;;7.45;100.00
59009;BME280;44794;42.652;23.318;2024-02-21T01:23:56;95121.50;;;7.67;100.00
59009;BME280;44794;42.652;23.318;2024-02-21T01:26:21;95134.75;;;7.92;98.59
59009;BME280;44794;42.652;23.318;2024-02-21T01:28:47;95130.50;;;7.60;98.59
59009;BME280;44794;42.652;23.318;2024-02-21T01:31:12;95129.53;;;7.62;98.61
59009;BME280;44794;42.652;23.318;2024-02-21T01:33:38;95123.34;;;7.65;98.81
59009;BME280;44794;42.652;23.318;2024-02-21T01:36:04;95125.59;;;7.71;97.88
59009;BME280;44794;42.652;23.318;2024-02-21T01:38:31;95124.50;;;7.75;96.97
59009;BME280;44794;42.652;23.318;2024-02-21T01:40:57;95121.25;;;7.87;96.07
59009;BME280;44794;42.652;23.318;2024-02-21T01:43:22;95125.34;;;7.91;95.93
59009;BME280;44794;42.652;23.318;2024-02-21T01:45:50;95115.84;;;7.76;95.55
59009;BME280;44794;42.652;23.318;2024-02-21T01:48:20;95118.56;;;8.04;95.13
59009;BME280;44794;42.652;23.318;2024-02-21T01:50:46;95121.16;;;8.19;93.21
59009;BME280;44794;42.652;23.318;2024-02-21T01:53:13;95120.72;;;7.96;93.09
59009;BME280;44794;42.652;23.318;2024-02-21T01:55:44;95122.41;;;7.97;93.32
59009;BME280;44794;42.652;23.318;2024-02-21T01:58:09;95122.16;;;8.01;93.16
59009;BME280;44794;42.652;23.318;2024-02-21T02:00:34;95114.22;;;8.20;91.68
59009;BME280;44794;42.652;23.318;2024-02-21T02:03:00;95125.19;;;7.94;91.94
59009;BME280;44794;42.652;23.318;2024-02-21T02:05:25;95114.41;;;8.01;92.02
59009;BME280;44794;42.652;23.318;2024-02-21T02:07:52;95124.50;;;8.06;90.83
59009;BME280;44794;42.652;23.318;2024-02-21T02:10:17;95127.16;;;8.04;90.24
59009;BME280;44794;42.652;23.318;2024-02-21T02:12:42;95127.50;;;8.14;89.66
59009;BME280;44794;42.652;23.318;2024-02-21T02:15:08;95120.38;;;8.02;90.27
59009;BME280;44794;42.652;23.318;2024-02-21T02:17:33;95113.16;;;7.77;92.07
59009;BME280;44794;42.652;23.318;2024-02-21T02:19:58;95113.97;;;7.93;92.29
59009;BME280;44794;42.652;23.318;2024-02-21T02:22:27;95114.34;;;7.72;92.23
59009;BME280;44794;42.652;23.318;2024-02-21T02:24:52;95107.63;;;8.14;91.88
59009;BME280;44794;42.652;23.318;2024-02-21T02:27:18;95111.13;;;8.28;89.80
59009;BME280;44794;42.652;23.318;2024-02-21T02:29:43;95111.13;;;8.13;89.82
59009;BME280;44794;42.652;23.318;2024-02-21T02:32:08;95111.47;;;8.22;89.74
59009;BME280;44794;42.652;23.318;2024-02-21T02:34:34;95108.22;;;8.04;89.41
59009;BME280;44794;42.652;23.318;2024-02-21T02:36:59;95104.16;;;8.15;89.78
59009;BME280;44794;42.652;23.318;2024-02-21T02:39:24;95104.84;;;8.32;89.01
59009;BME280;44794;42.652;23.318;2024-02-21T02:41:49;95101.75;;;8.41;88.42
59009;BME280;44794;42.652;23.318;2024-02-21T02:44:15;95107.53;;;8.31;88.00
59009;BME280;44794;42.652;23.318;2024-02-21T02:46:41;95105.28;;;8.54;87.21
59009;BME280;44794;42.652;23.318;2024-02-21T02:49:06;95108.63;;;8.27;87.62
59009;BME280;44794;42.652;23.318;2024-02-21T02:51:32;95103.03;;;8.19;87.83
59009;BME280;44794;42.652;23.318;2024-02-21T02:53:57;95104.75;;;7.89;89.95
59009;BME280;44794;42.652;23.318;2024-02-21T02:56:22;95111.56;;;8.06;89.54
59009;BME280;44794;42.652;23.318;2024-02-21T02:58:47;95106.72;;;8.00;90.47
59009;BME280;44794;42.652;23.318;2024-02-21T03:01:13;95107.88;;;8.10;89.99
59009;BME280;44794;42.652;23.318;2024-02-21T03:03:38;95104.81;;;8.03;90.09
59009;BME280;44794;42.652;23.318;2024-02-21T03:06:04;95090.47;;;7.98;90.04
59009;BME280;44794;42.652;23.318;2024-02-21T03:08:29;95098.31;;;7.81;90.68
59009;BME280;44794;42.652;23.318;2024-02-21T03:10:54;95094.81;;;7.66;91.40
59009;BME280;44794;42.652;23.318;2024-02-21T03:13:20;95111.06;;;7.84;92.31
59009;BME280;44794;42.652;23.318;2024-02-21T03:15:45;95116.47;;;7.95;90.74
59009;BME280;44794;42.652;23.318;2024-02-21T03:18:10;95116.53;;;8.09;90.52
59009;BME280;44794;42.652;23.318;2024-02-21T03:20:35;95125.47;;;8.34;88.61
59009;BME280;44794;42.652;23.318;2024-02-21T03:23:01;95117.34;;;7.80;90.67
59009;BME280;44794;42.652;23.318;2024-02-21T03:25:26;95116.47;;;7.95;90.64
59009;BME280;44794;42.652;23.318;2024-02-21T03:27:51;95124.56;;;7.89;91.38
59009;BME280;44794;42.652;23.318;2024-02-21T03:30:16;95119.25;;;7.92;91.30
59009;BME280;44794;42.652;23.318;2024-02-21T03:32:42;95118.91;;;7.98;90.90
59009;BME280;44794;42.652;23.318;2024-02-21T03:35:07;95119.72;;;7.98;90.40
59009;BME280;44794;42.652;23.318;2024-02-21T03:37:35;95124.84;;;8.00;90.26
59009;BME280;44794;42.652;23.318;2024-02-21T03:40:00;95129.06;;;8.31;89.46
59009;BME280;44794;42.652;23.318;2024-02-21T03:42:27;95133.00;;;8.08;90.27
59009;BME280;44794;42.652;23.318;2024-02-21T03:44:54;95118.75;;;8.01;90.38
59009;BME280;44794;42.652;23.318;2024-02-21T03:47:19;95131.09;;;8.11;90.64
59009;BME280;44794;42.652;23.318;2024-02-21T03:49:45;95136.00;;;8.16;90.18
59009;BME280;44794;42.652;23.318;2024-02-21T03:52:10;95132.22;;;8.36;89.54
59009;BME280;44794;42.652;23.318;2024-02-21T03:54:35;95134.06;;;8.19;88.87
59009;BME280;44794;42.652;23.318;2024-02-21T03:57:01;95135.25;;;7.98;89.99
59009;BME280;44794;42.652;23.318;2024-02-21T03:59:26;95129.19;;;8.15;89.74
59009;BME280;44794;42.652;23.318;2024-02-21T04:01:54;95136.31;;;8.40;88.37
59009;BME280;44794;42.652;23.318;2024-02-21T04:04:19;95135.94;;;8.46;87.43
59009;BME280;44794;42.652;23.318;2024-02-21T04:06:48;95146.50;;;8.13;88.27
59009;BME280;44794;42.652;23.318;2024-02-21T04:09:13;95134.59;;;8.25;88.21
59009;BME280;44794;42.652;23.318;2024-02-21T04:11:38;95136.16;;;8.28;88.30
59009;BME280;44794;42.652;23.318;2024-02-21T04:14:04;95131.94;;;8.41;87.54
59009;BME280;44794;42.652;23.318;2024-02-21T04:16:29;95139.47;;;8.45;87.57
59009;BME280;44794;42.652;23.318;2024-02-21T04:18:54;95140.06;;;8.64;85.62
59009;BME280;44794;42.652;23.318;2024-02-21T04:21:19;95135.19;;;8.44;86.90
59009;BME280;44794;42.652;23.318;2024-02-21T04:23:45;95132.97;;;8.38;86.81
59009;BME280;44794;42.652;23.318;2024-02-21T04:26:10;95123.81;;;8.02;88.49
59009;BME280;44794;42.652;23.318;2024-02-21T04:28:35;95127.16;;;8.04;89.69
59009;BME280;44794;42.652;23.318;2024-02-21T04:31:00;95134.00;;;7.90;90.34
59009;BME280;44794;42.652;23.318;2024-02-21T04:33:26;95129.47;;;8.09;90.39
59009;BME280;44794;42.652;23.318;2024-02-21T04:35:51;95129.19;;;8.15;88.99
59009;BME280;44794;42.652;23.318;2024-02-21T04:38:19;95131.31;;;7.91;89.11
59009;BME280;44794;42.652;23.318;2024-02-21T04:40:45;95132.19;;;7.76;91.26
59009;BME280;44794;42.652;23.318;2024-02-21T04:43:10;95129.25;;;7.98;90.57
59009;BME280;44794;42.652;23.318;2024-02-21T04:45:35;95131.84;;;7.67;92.17
59009;BME280;44794;42.652;23.318;2024-02-21T04:48:00;95131.84;;;7.82;91.43
59009;BME280;44794;42.652;23.318;2024-02-21T04:50:26;95130.59;;;7.89;90.64
59009;BME280;44794;42.652;23.318;2024-02-21T04:52:52;95133.25;;;7.88;90.84
59009;BME280;44794;42.652;23.318;2024-02-21T04:55:17;95135.69;;;7.91;91.09
59009;BME280;44794;42.652;23.318;2024-02-21T04:57:43;95132.34;;;7.89;91.09
59009;BME280;44794;42.652;23.318;2024-02-21T05:00:08;95131.00;;;7.66;91.51
59009;BME280;44794;42.652;23.318;2024-02-21T05:02:34;95126.94;;;7.62;92.65
59009;BME280;44794;42.652;23.318;2024-02-21T05:04:59;95112.97;;;7.34;94.65
59009;BME280;44794;42.652;23.318;2024-02-21T05:07:24;95120.47;;;7.23;96.12
59009;BME280;44794;42.652;23.318;2024-02-21T05:09:50;95126.13;;;7.30;95.21
59009;BME280;44794;42.652;23.318;2024-02-21T05:12:16;95123.78;;;7.25;95.31
59009;BME280;44794;42.652;23.318;2024-02-21T05:14:41;95136.47;;;7.30;95.42
59009;BME280;44794;42.652;23.318;2024-02-21T05:17:06;95125.91;;;7.34;95.79
59009;BME280;44794;42.652;23.318;2024-02-21T05:19:32;95134.19;;;7.56;93.76
59009;BME280;44794;42.652;23.318;2024-02-21T05:21:58;95140.16;;;7.41;93.46
59009;BME280;44794;42.652;23.318;2024-02-21T05:24:23;95140.56;;;7.34;93.47
59009;BME280;44794;42.652;23.318;2024-02-21T05:26:49;95144.84;;;7.50;92.09
59009;BME280;44794;42.652;23.318;2024-02-21T05:29:14;95145.41;;;7.55;91.21
59009;BME280;44794;42.652;23.318;2024-02-21T05:31:54;95144.09;;;7.63;90.29
59009;BME280;44794;42.652;23.318;2024-02-21T05:34:20;95154.19;;;7.99;88.66
59009;BME280;44794;42.652;23.318;2024-02-21T05:36:45;95158.78;;;7.94;87.17
59009;BME280;44794;42.652;23.318;2024-02-21T05:39:11;95152.69;;;8.10;86.22
59009;BME280;44794;42.652;23.318;2024-02-21T05:41:37;95154.19;;;8.14;86.03
59009;BME280;44794;42.652;23.318;2024-02-21T05:44:02;95151.84;;;8.40;84.31
59009;BME280;44794;42.652;23.318;2024-02-21T05:46:27;95161.22;;;8.27;83.34
59009;BME280;44794;42.652;23.318;2024-02-21T05:48:53;95167.63;;;8.65;81.61
59009;BME280;44794;42.652;23.318;2024-02-21T05:51:18;95176.50;;;8.61;80.22
59009;BME280;44794;42.652;23.318;2024-02-21T05:53:43;95180.53;;;8.51;80.81
59009;BME280;44794;42.652;23.318;2024-02-21T05:56:12;95182.53;;;8.46;80.71
59009;BME280;44794;42.652;23.318;2024-02-21T05:58:37;95183.56;;;8.44;80.43
59009;BME280;44794;42.652;23.318;2024-02-21T06:01:03;95178.84;;;8.66;80.37
59009;BME280;44794;42.652;23.318;2024-02-21T06:03:29;95183.19;;;8.79;78.46
59009;BME280;44794;42.652;23.318;2024-02-21T06:05:54;95181.84;;;8.58;78.63
59009;BME280;44794;42.652;23.318;2024-02-21T06:08:19;95181.72;;;8.46;79.03
59009;BME280;44794;42.652;23.318;2024-02-21T06:10:45;95192.59;;;8.66;78.39
59009;BME280;44794;42.652;23.318;2024-02-21T06:13:10;95196.19;;;8.64;77.35
59009;BME280;44794;42.652;23.318;2024-02-21T06:15:36;95207.22;;;8.67;77.61
59009;BME280;44794;42.652;23.318;2024-02-21T06:18:01;95201.63;;;8.89;77.04
59009;BME280;44794;42.652;23.318;2024-02-21T06:20:26;95212.31;;;8.98;75.40
59009;BME280;44794;42.652;23.318;2024-02-21T06:22:51;95210.06;;;9.21;74.70
59009;BME280;44794;42.652;23.318;2024-02-21T06:25:17;95214.66;;;9.16;74.82
59009;BME280;44794;42.652;23.318;2024-02-21T06:27:42;95212.19;;;9.29;73.83
59009;BME280;44794;42.652;23.318;2024-02-21T06:30:08;95213.94;;;9.14;73.53
59009;BME280;44794;42.652;23.318;2024-02-21T06:32:34;95211.53;;;8.82;75.25
59009;BME280;44794;42.652;23.318;2024-02-21T06:34:59;95210.56;;;8.69;77.02
59009;BME280;44794;42.652;23.318;2024-02-21T06:37:26;95209.53;;;8.72;77.34
59009;BME280;44794;42.652;23.318;2024-02-21T06:39:52;95209.91;;;8.66;78.06
59009;BME280;44794;42.652;23.318;2024-02-21T06:42:17;95219.06;;;9.00;77.19
59009;BME280;44794;42.652;23.318;2024-02-21T06:44:43;95222.75;;;9.40;74.36
59009;BME280;44794;42.652;23.318;2024-02-21T06:47:09;95235.28;;;9.75;73.45
59009;BME280;44794;42.652;23.318;2024-02-21T06:49:34;95241.59;;;9.99;70.70
59009;BME280;44794;42.652;23.318;2024-02-21T06:51:59;95242.94;;;9.90;69.55
59009;BME280;44794;42.652;23.318;2024-02-21T06:54:24;95246.41;;;9.91;69.68
59009;BME280;44794;42.652;23.318;2024-02-21T06:56:50;95246.75;;;9.43;71.92
59009;BME280;44794;42.652;23.318;2024-02-21T06:59:15;95239.34;;;9.79;72.22
59009;BME280;44794;42.652;23.318;2024-02-21T07:01:44;95245.25;;;9.95;70.55
59009;BME280;44794;42.652;23.318;2024-02-21T07:04:10;95236.31;;;10.14;71.31
59009;BME280;44794;42.652;23.318;2024-02-21T07:06:35;95254.38;;;10.56;67.48
59009;BME280;44794;42.652;23.318;2024-02-21T07:09:00;95243.41;;;10.25;67.83
59009;BME280;44794;42.652;23.318;2024-02-21T07:11:25;95246.13;;;10.23;68.14
59009;BME280;44794;42.652;23.318;2024-02-21T07:13:51;95247.97;;;10.21;69.46
59009;BME280;44794;42.652;23.318;2024-02-21T07:16:17;95248.38;;;10.55;67.51
59009;BME280;44794;42.652;23.318;2024-02-21T07:18:42;95252.53;;;10.58;67.08
59009;BME280;44794;42.652;23.318;2024-02-21T07:21:07;95254.19;;;10.05;68.46
59009;BME280;44794;42.652;23.318;2024-02-21T07:23:33;95247.03;;;9.94;70.23
59009;BME280;44794;42.652;23.318;2024-02-21T07:25:58;95249.38;;;10.13;70.76
59009;BME280;44794;42.652;23.318;2024-02-21T07:28:23;95243.59;;;9.94;71.29
59009;BME280;44794;42.652;23.318;2024-02-21T07:30:48;95250.03;;;10.02;71.29
59009;BME280;44794;42.652;23.318;2024-02-21T07:33:14;95241.72;;;9.40;74.00
59009;BME280;44794;42.652;23.318;2024-02-21T07:35:39;95230.28;;;9.15;76.85
59009;BME280;44794;42.652;23.318;2024-02-21T07:38:06;95240.25;;;9.36;76.91
59009;BME280;44794;42.652;23.318;2024-02-21T07:40:33;95243.59;;;9.66;75.88
59009;BME280;44794;42.652;23.318;2024-02-21T07:42:58;95242.50;;;10.12;73.42
59009;BME280;44794;42.652;23.318;2024-02-21T07:45:24;95251.97;;;10.27;71.44
59009;BME280;44794;42.652;23.318;2024-02-21T07:47:49;95252.00;;;10.39;68.64
59009;BME280;44794;42.652;23.318;2024-02-21T07:50:15;95261.16;;;10.85;66.95
59009;BME280;44794;42.652;23.318;2024-02-21T07:52:40;95256.44;;;11.04;65.76
59009;BME280;44794;42.652;23.318;2024-02-21T07:55:06;95256.00;;;10.71;66.33
59009;BME280;44794;42.652;23.318;2024-02-21T07:57:31;95246.06;;;10.51;66.32
59009;BME280;44794;42.652;23.318;2024-02-21T07:59:56;95247.13;;;10.61;67.63
59009;BME280;44794;42.652;23.318;2024-02-21T08:02:21;95247.88;;;10.89;66.79
59009;BME280;44794;42.652;23.318;2024-02-21T08:04:47;95248.28;;;10.83;66.45
59009;BME280;44794;42.652;23.318;2024-02-21T08:07:12;95247.72;;;10.78;65.78
59009;BME280;44794;42.652;23.318;2024-02-21T08:09:39;95242.06;;;10.98;65.67
59009;BME280;44794;42.652;23.318;2024-02-21T08:12:04;95248.72;;;11.28;63.93
59009;BME280;44794;42.652;23.318;2024-02-21T08:14:30;95249.72;;;11.77;62.69
59009;BME280;44794;42.652;23.318;2024-02-21T08:16:55;95260.50;;;12.21;59.64
59009;BME280;44794;42.652;23.318;2024-02-21T08:19:21;95260.63;;;11.57;59.60
59009;BME280;44794;42.652;23.318;2024-02-21T08:21:47;95252.56;;;11.35;61.95
59009;BME280;44794;42.652;23.318;2024-02-21T08:24:15;95258.47;;;11.37;61.66
59009;BME280;44794;42.652;23.318;2024-02-21T08:26:44;95245.34;;;11.90;60.12
59009;BME280;44794;42.652;23.318;2024-02-21T08:29:12;95262.25;;;11.46;59.65
59009;BME280;44794;42.652;23.318;2024-02-21T08:31:37;95248.63;;;11.04;62.22
59009;BME280;44794;42.652;23.318;2024-02-21T08:34:02;95249.53;;;11.29;61.56
59009;BME280;44794;42.652;23.318;2024-02-21T08:36:32;95247.63;;;11.70;60.07
59009;BME280;44794;42.652;23.318;2024-02-21T08:38:58;95253.97;;;12.15;57.86
59009;BME280;44794;42.652;23.318;2024-02-21T08:41:26;95248.03;;;12.01;57.77
59009;BME280;44794;42.652;23.318;2024-02-21T08:43:52;95252.22;;;12.52;56.94
59009;BME280;44794;42.652;23.318;2024-02-21T08:46:19;95253.47;;;12.34;55.44
59009;BME280;44794;42.652;23.318;2024-02-21T08:48:44;95253.91;;;12.28;56.02
59009;BME280;44794;42.652;23.318;2024-02-21T08:51:13;95257.50;;;11.90;56.16
59009;BME280;44794;42.652;23.318;2024-02-21T08:53:38;95252.09;;;12.05;56.31
59009;BME280;44794;42.652;23.318;2024-02-21T08:56:03;95265.44;;;12.49;54.45
59009;BME280;44794;42.652;23.318;2024-02-21T08:58:29;95266.38;;;12.48;54.03
59009;BME280;44794;42.652;23.318;2024-02-21T09:00:54;95260.91;;;12.40;52.98
59009;BME280;44794;42.652;23.318;2024-02-21T09:03:21;95261.16;;;12.12;53.95
59009;BME280;44794;42.652;23.318;2024-02-21T09:05:47;95258.66;;;11.98;55.00
59009;BME280;44794;42.652;23.318;2024-02-21T09:08:12;95257.63;;;12.00;55.12
59009;BME280;44794;42.652;23.318;2024-02-21T09:10:38;95266.50;;;11.47;55.63
59009;BME280;44794;42.652;23.318;2024-02-21T09:13:04;95258.97;;;10.91;58.03
59009;BME280;44794;42.652;23.318;2024-02-21T09:15:30;95260.94;;;10.88;59.91
59009;BME280;44794;42.652;23.318;2024-02-21T09:17:55;95258.75;;;10.55;61.10
59009;BME280;44794;42.652;23.318;2024-02-21T09:20:20;95253.31;;;10.72;60.78
59009;BME280;44794;42.652;23.318;2024-02-21T09:22:45;95247.63;;;10.80;61.40
59009;BME280;44794;42.652;23.318;2024-02-21T09:25:11;95247.34;;;10.58;61.25
59009;BME280;44794;42.652;23.318;2024-02-21T09:27:37;95241.63;;;10.39;62.80
59009;BME280;44794;42.652;23.318;2024-02-21T09:30:02;95242.00;;;10.73;61.42
59009;BME280;44794;42.652;23.318;2024-02-21T09:32:29;95244.81;;;10.83;61.69
59009;BME280;44794;42.652;23.318;2024-02-21T09:34:54;95235.66;;;10.77;62.70
59009;BME280;44794;42.652;23.318;2024-02-21T09:37:20;95241.13;;;10.99;63.30
59009;BME280;44794;42.652;23.318;2024-02-21T09:39:45;95232.25;;;10.37;65.07
59009;BME280;44794;42.652;23.318;2024-02-21T09:42:12;95231.31;;;9.97;69.30
59009;BME280;44794;42.652;23.318;2024-02-21T09:44:39;95230.63;;;10.08;69.48
59009;BME280;44794;42.652;23.318;2024-02-21T09:49:56;95232.28;;;10.23;68.84
59009;BME280;44794;42.652;23.318;2024-02-21T09:52:22;95240.56;;;10.55;66.23
59009;BME280;44794;42.652;23.318;2024-02-21T09:54:47;95241.47;;;10.81;65.29
59009;BME280;44794;42.652;23.318;2024-02-21T09:57:13;95242.81;;;10.48;64.94
59009;BME280;44794;42.652;23.318;2024-02-21T09:59:39;95239.16;;;10.64;65.55
59009;BME280;44794;42.652;23.318;2024-02-21T10:02:06;95242.38;;;10.67;64.59
59009;BME280;44794;42.652;23.318;2024-02-21T10:04:32;95245.31;;;10.49;64.07
59009;BME280;44794;42.652;23.318;2024-02-21T10:06:57;95234.44;;;10.56;63.98
59009;BME280;44794;42.652;23.318;2024-02-21T10:09:23;95243.56;;;10.76;62.44
59009;BME280;44794;42.652;23.318;2024-02-21T10:11:49;95237.13;;;11.08;61.49
59009;BME280;44794;42.652;23.318;2024-02-21T10:14:15;95243.94;;;11.47;58.89
59009;BME280;44794;42.652;23.318;2024-02-21T10:16:41;95254.63;;;11.30;56.40
59009;BME280;44794;42.652;23.318;2024-02-21T10:19:15;95244.84;;;11.34;56.28
59009;BME280;44794;42.652;23.318;2024-02-21T10:21:40;95238.50;;;11.50;55.98
59009;BME280;44794;42.652;23.318;2024-02-21T10:24:06;95239.06;;;11.68;55.55
59009;BME280;44794;42.652;23.318;2024-02-21T10:26:31;95233.78;;;11.94;54.93
59009;BME280;44794;42.652;23.318;2024-02-21T10:28:56;95240.94;;;11.91;54.51
59009;BME280;44794;42.652;23.318;2024-02-21T10:31:25;95238.03;;;11.95;53.57
59009;BME280;44794;42.652;23.318;2024-02-21T10:33:55;95220.78;;;11.69;53.67
59009;BME280;44794;42.652;23.318;2024-02-21T10:36:20;95217.34;;;11.56;54.61
59009;BME280;44794;42.652;23.318;2024-02-21T10:38:45;95215.56;;;11.69;54.56
59009;BME280;44794;42.652;23.318;2024-02-21T10:41:11;95199.03;;;11.58;54.29
59009;BME280;44794;42.652;23.318;2024-02-21T10:43:39;95200.59;;;11.60;54.22
59009;BME280;44794;42.652;23.318;2024-02-21T10:46:07;95198.47;;;11.28;54.04
59009;BME280;44794;42.652;23.318;2024-02-21T10:48:43;95194.88;;;11.55;53.82
59009;BME280;44794;42.652;23.318;2024-02-21T10:51:16;95183.72;;;11.53;54.07
59009;BME280;44794;42.652;23.318;2024-02-21T10:53:47;95176.31;;;11.47;53.17
59009;BME280;44794;42.652;23.318;2024-02-21T10:56:21;95185.97;;;11.45;51.56
59009;BME280;44794;42.652;23.318;2024-02-21T10:58:48;95182.38;;;11.60;51.63
59009;BME280;44794;42.652;23.318;2024-02-21T11:01:14;95185.59;;;11.51;50.49
59009;BME280;44794;42.652;23.318;2024-02-21T11:03:43;95179.16;;;11.57;51.63
59009;BME280;44794;42.652;23.318;2024-02-21T11:06:10;95172.09;;;11.59;50.78
59009;BME280;44794;42.652;23.318;2024-02-21T11:08:36;95173.91;;;11.94;50.54
59009;BME280;44794;42.652;23.318;2024-02-21T11:11:01;95171.66;;;11.77;50.00
59009;BME280;44794;42.652;23.318;2024-02-21T11:13:30;95159.16;;;12.18;49.80
59009;BME280;44794;42.652;23.318;2024-02-21T11:16:05;95172.81;;;12.68;48.03
59009;BME280;44794;42.652;23.318;2024-02-21T11:18:30;95176.28;;;12.92;46.45
59009;BME280;44794;42.652;23.318;2024-02-21T11:20:55;95177.75;;;12.83;46.18
59009;BME280;44794;42.652;23.318;2024-02-21T11:23:24;95173.91;;;13.23;45.95
59009;BME280;44794;42.652;23.318;2024-02-21T11:25:50;95173.69;;;13.37;45.84
59009;BME280;44794;42.652;23.318;2024-02-21T11:28:15;95178.41;;;13.21;45.85
59009;BME280;44794;42.652;23.318;2024-02-21T11:30:50;95167.09;;;12.86;46.54
59009;BME280;44794;42.652;23.318;2024-02-21T11:33:16;95170.25;;;13.37;45.80
59009;BME280;44794;42.652;23.318;2024-02-21T11:35:41;95169.38;;;13.25;46.21
59009;BME280;44794;42.652;23.318;2024-02-21T11:38:07;95162.78;;;13.43;45.36
59009;BME280;44794;42.652;23.318;2024-02-21T11:40:33;95167.34;;;13.85;45.07
59009;BME280;44794;42.652;23.318;2024-02-21T11:42:59;95168.44;;;14.15;44.11
59009;BME280;44794;42.652;23.318;2024-02-21T11:45:25;95164.34;;;13.78;44.18
59009;BME280;44794;42.652;23.318;2024-02-21T11:47:51;95156.13;;;13.39;44.89
59009;BME280;44794;42.652;23.318;2024-02-21T11:50:16;95154.25;;;13.41;44.17
59009;BME280;44794;42.652;23.318;2024-02-21T11:52:41;95147.41;;;13.06;44.43
59009;BME280;44794;42.652;23.318;2024-02-21T11:55:06;95150.63;;;12.63;45.31
59009;BME280;44794;42.652;23.318;2024-02-21T11:57:33;95148.03;;;12.63;45.67
59009;BME280;44794;42.652;23.318;2024-02-21T12:00:10;95149.38;;;12.68;45.62
59009;BME280;44794;42.652;23.318;2024-02-21T12:02:35;95145.88;;;12.57;46.23
59009;BME280;44794;42.652;23.318;2024-02-21T12:05:00;95140.22;;;12.39;46.69
59009;BME280;44794;42.652;23.318;2024-02-21T12:07:26;95139.88;;;11.97;47.36
59009;BME280;44794;42.652;23.318;2024-02-21T12:09:58;95134.94;;;12.05;47.29
59009;BME280;44794;42.652;23.318;2024-02-21T12:12:23;95127.78;;;11.96;47.96
59009;BME280;44794;42.652;23.318;2024-02-21T12:14:54;95130.97;;;12.35;47.60
59009;BME280;44794;42.652;23.318;2024-02-21T12:17:20;95124.16;;;12.45;47.30
59009;BME280;44794;42.652;23.318;2024-02-21T12:19:45;95131.47;;;12.64;46.93
59009;BME280;44794;42.652;23.318;2024-02-21T12:22:16;95124.72;;;12.72;46.16
59009;BME280;44794;42.652;23.318;2024-02-21T12:24:41;95121.50;;;12.58;46.70
59009;BME280;44794;42.652;23.318;2024-02-21T12:27:12;95111.34;;;12.66;47.19
59009;BME280;44794;42.652;23.318;2024-02-21T12:29:37;95124.66;;;12.73;47.60
59009;BME280;44794;42.652;23.318;2024-02-21T12:32:03;95119.34;;;12.05;47.94
59009;BME280;44794;42.652;23.318;2024-02-21T12:34:29;95108.81;;;11.58;48.72
59009;BME280;44794;42.652;23.318;2024-02-21T12:36:56;95098.31;;;11.60;49.48
59009;BME280;44794;42.652;23.318;2024-02-21T12:39:22;95110.81;;;11.91;49.12
59009;BME280;44794;42.652;23.318;2024-02-21T12:41:47;95112.00;;;11.74;48.97
59009;BME280;44794;42.652;23.318;2024-02-21T12:44:13;95105.69;;;11.66;48.82
59009;BME280;44794;42.652;23.318;2024-02-21T12:46:39;95100.28;;;11.44;49.38
59009;BME280;44794;42.652;23.318;2024-02-21T12:49:05;95096.81;;;11.81;48.69
59009;BME280;44794;42.652;23.318;2024-02-21T12:51:31;95107.59;;;12.23;47.97